Time;durP1;ratioP1;P1;durP2;ratioP2;P2;SDS_P1;SDS_P2;PMS_P1;PMS_P2;Temp;Humidity;BMP_temperature;BMP_pressure;BME280_temperature;BME280_humidity;BME280_pressure;Samples;Min_cycle;Max_cycle;Signal;HPM_P1;HPM_P2
2023/11/08 00:00:22;;;;;;;10.23;6.60;;;;;;;;;;5017905;28;20204;-62
2023/11/08 00:02:51;;;;;;;10.77;6.23;;;;;;;;;;5025609;28;20232;-62
2023/11/08 00:05:21;;;;;;;13.00;6.43;;;;;;;;;;5032326;28;20210;-62
2023/11/08 00:07:49;;;;;;;10.57;6.47;;;;;;;;;;5021834;28;20223;-62
2023/11/08 00:10:18;;;;;;;9.30;6.00;;;;;;;;;;5018089;28;20258;-62
2023/11/08 00:12:46;;;;;;;10.87;6.57;;;;;;;;;;5010191;28;20629;-62
2023/11/08 00:15:15;;;;;;;13.17;6.47;;;;;;;;;;5023263;28;20310;-64
2023/11/08 00:17:44;;;;;;;14.07;6.50;;;;;;;;;;5013617;28;20234;-62
2023/11/08 00:20:13;;;;;;;12.70;6.27;;;;;;;;;;5017977;28;20566;-64
2023/11/08 00:22:44;;;;;;;14.23;7.00;;;;;;;;;;5017741;28;20593;-64
2023/11/08 00:25:13;;;;;;;8.83;6.03;;;;;;;;;;5018142;28;20211;-64
2023/11/08 00:27:41;;;;;;;11.77;5.60;;;;;;;;;;5025669;28;20282;-64
2023/11/08 00:30:09;;;;;;;10.10;6.10;;;;;;;;;;5036429;28;20663;-64
2023/11/08 00:32:38;;;;;;;8.80;6.17;;;;;;;;;;5018243;28;20263;-64
2023/11/08 00:35:06;;;;;;;9.30;5.90;;;;;;;;;;5022067;28;20282;-65
2023/11/08 00:37:36;;;;;;;8.90;6.37;;;;;;;;;;5028260;28;20306;-64
2023/11/08 00:40:07;;;;;;;9.63;6.00;;;;;;;;;;5017570;28;20212;-64
2023/11/08 00:42:38;;;;;;;9.07;5.87;;;;;;;;;;5024448;28;20224;-64
2023/11/08 00:45:10;;;;;;;11.40;6.23;;;;;;;;;;5020156;28;20710;-64
2023/11/08 00:47:39;;;;;;;9.17;6.33;;;;;;;;;;5038065;28;20253;-64
2023/11/08 00:50:07;;;;;;;11.23;5.23;;;;;;;;;;5041668;28;20207;-64
2023/11/08 00:52:36;;;;;;;9.73;5.63;;;;;;;;;;5022539;28;20318;-64
2023/11/08 00:55:07;;;;;;;10.80;5.80;;;;;;;;;;5021548;28;20215;-64
2023/11/08 00:57:35;;;;;;;16.60;6.10;;;;;;;;;;5036937;28;20223;-64
2023/11/08 01:00:07;;;;;;;10.03;5.93;;;;;;;;;;5021222;28;20208;-64
2023/11/08 01:02:36;;;;;;;11.53;6.37;;;;;;;;;;5020430;28;20315;-62
2023/11/08 01:05:06;;;;;;;10.87;6.20;;;;;;;;;;5021473;28;20278;-62
2023/11/08 01:07:34;;;;;;;9.27;6.00;;;;;;;;;;5021247;28;20204;-62
2023/11/08 01:10:03;;;;;;;10.87;6.03;;;;;;;;;;5041365;28;20218;-62
2023/11/08 01:12:33;;;;;;;10.40;6.43;;;;;;;;;;5025619;28;20232;-63
2023/11/08 01:15:02;;;;;;;11.13;6.00;;;;;;;;;;5019843;28;20206;-64
2023/11/08 01:17:31;;;;;;;12.37;6.07;;;;;;;;;;5030550;28;20310;-64
2023/11/08 01:20:00;;;;;;;9.40;5.73;;;;;;;;;;5040178;28;20263;-64
2023/11/08 01:22:29;;;;;;;7.73;6.13;;;;;;;;;;5039903;28;20223;-61
2023/11/08 01:24:58;;;;;;;10.13;6.13;;;;;;;;;;5023113;28;20223;-62
2023/11/08 01:27:26;;;;;;;10.13;6.70;;;;;;;;;;5037103;28;20210;-64
2023/11/08 01:29:56;;;;;;;8.67;5.97;;;;;;;;;;5039607;28;20230;-64
2023/11/08 01:32:24;;;;;;;11.03;6.13;;;;;;;;;;5039712;28;20223;-61
2023/11/08 01:34:52;;;;;;;9.63;6.60;;;;;;;;;;5038175;28;20294;-64
2023/11/08 01:37:20;;;;;;;14.33;6.23;;;;;;;;;;5034798;28;20324;-64
2023/11/08 01:39:49;;;;;;;10.27;6.77;;;;;;;;;;5027689;28;20723;-62
2023/11/08 01:42:19;;;;;;;10.13;6.10;;;;;;;;;;5026657;28;20263;-62
2023/11/08 01:44:48;;;;;;;12.40;6.03;;;;;;;;;;5022570;28;20219;-61
2023/11/08 01:47:18;;;;;;;8.13;5.97;;;;;;;;;;5027739;28;20200;-62
2023/11/08 01:49:47;;;;;;;12.27;6.33;;;;;;;;;;5031035;28;20570;-62
2023/11/08 01:52:16;;;;;;;10.90;6.40;;;;;;;;;;5032112;28;20219;-61
2023/11/08 01:54:48;;;;;;;11.63;6.57;;;;;;;;;;5019317;28;20235;-61
2023/11/08 01:57:16;;;;;;;11.20;5.53;;;;;;;;;;5029213;28;20630;-61
2023/11/08 01:59:45;;;;;;;10.57;5.47;;;;;;;;;;5027048;28;20200;-61
2023/11/08 02:02:14;;;;;;;9.17;5.37;;;;;;;;;;5031973;28;20219;-61
2023/11/08 02:04:44;;;;;;;9.63;6.20;;;;;;;;;;5028496;28;20639;-62
2023/11/08 02:07:12;;;;;;;8.60;5.90;;;;;;;;;;5032430;28;20275;-62
2023/11/08 02:09:41;;;;;;;8.93;5.63;;;;;;;;;;5030762;28;20203;-62
2023/11/08 02:12:10;;;;;;;11.33;5.50;;;;;;;;;;5031022;28;20216;-62
2023/11/08 02:14:53;;;;;;;8.67;6.33;;;;;;;;;;5029680;28;20207;-63
2023/11/08 02:17:21;;;;;;;11.97;6.60;;;;;;;;;;5019121;28;20220;-62
2023/11/08 02:19:51;;;;;;;9.80;6.63;;;;;;;;;;5020413;28;20204;-62
2023/11/08 02:22:21;;;;;;;8.67;6.43;;;;;;;;;;5019877;28;20224;-62
2023/11/08 02:24:51;;;;;;;9.20;5.67;;;;;;;;;;5019779;28;20301;-62
2023/11/08 02:27:20;;;;;;;14.73;6.27;;;;;;;;;;5028172;28;20284;-62
2023/11/08 02:29:49;;;;;;;10.03;6.57;;;;;;;;;;5026701;28;20207;-62
2023/11/08 02:32:18;;;;;;;16.87;6.97;;;;;;;;;;5028987;28;20269;-62
2023/11/08 02:34:48;;;;;;;14.17;6.53;;;;;;;;;;5028365;28;20598;-62
2023/11/08 02:37:17;;;;;;;12.30;5.87;;;;;;;;;;5030000;28;20231;-62
2023/11/08 02:39:45;;;;;;;10.70;6.47;;;;;;;;;;5022333;28;20718;-62
2023/11/08 02:42:15;;;;;;;11.30;5.80;;;;;;;;;;5029190;28;20223;-62
2023/11/08 02:44:44;;;;;;;12.10;7.37;;;;;;;;;;5028499;28;20266;-62
2023/11/08 02:47:12;;;;;;;12.53;7.10;;;;;;;;;;5028133;28;20206;-62
2023/11/08 02:49:41;;;;;;;8.73;6.53;;;;;;;;;;5027850;28;20303;-62
2023/11/08 02:52:09;;;;;;;14.73;7.37;;;;;;;;;;5034489;28;20698;-62
2023/11/08 02:54:38;;;;;;;12.20;7.97;;;;;;;;;;5024564;28;20204;-61
2023/11/08 02:57:06;;;;;;;19.07;9.17;;;;;;;;;;5019214;28;20204;-62
2023/11/08 02:59:38;;;;;;;15.60;8.93;;;;;;;;;;5037008;28;20202;-63
2023/11/08 03:02:06;;;;;;;12.60;7.10;;;;;;;;;;5025325;28;20258;-62
2023/11/08 03:04:34;;;;;;;13.77;7.37;;;;;;;;;;5018954;28;20210;-62
2023/11/08 03:07:03;;;;;;;14.53;7.87;;;;;;;;;;5037651;28;20196;-63
2023/11/08 03:09:32;;;;;;;11.63;6.87;;;;;;;;;;5039192;28;20314;-63
2023/11/08 03:12:01;;;;;;;15.17;7.93;;;;;;;;;;5023593;28;20263;-63
2023/11/08 03:14:29;;;;;;;10.67;7.00;;;;;;;;;;5033224;28;20234;-63
2023/11/08 03:16:59;;;;;;;10.47;7.27;;;;;;;;;;5026151;28;20283;-63
2023/11/08 03:19:26;;;;;;;11.07;6.63;;;;;;;;;;5033860;28;20223;-63
2023/11/08 03:21:55;;;;;;;8.93;6.27;;;;;;;;;;5018672;28;20224;-62
2023/11/08 03:24:23;;;;;;;15.30;7.10;;;;;;;;;;5026577;28;20208;-63
2023/11/08 03:26:51;;;;;;;10.53;6.30;;;;;;;;;;5037950;28;20204;-62
2023/11/08 03:29:21;;;;;;;13.37;6.07;;;;;;;;;;5038397;28;20223;-62
2023/11/08 03:31:49;;;;;;;8.20;5.77;;;;;;;;;;5034831;28;20310;-62
2023/11/08 03:34:21;;;;;;;9.07;5.47;;;;;;;;;;5036497;28;20671;-63
2023/11/08 03:36:49;;;;;;;7.83;5.77;;;;;;;;;;5025249;28;20323;-63
2023/11/08 03:39:18;;;;;;;6.57;5.10;;;;;;;;;;5018637;28;20237;-64
2023/11/08 03:41:47;;;;;;;11.17;6.10;;;;;;;;;;5023029;28;20224;-63
2023/11/08 03:44:15;;;;;;;12.93;6.37;;;;;;;;;;5018242;28;20667;-63
2023/11/08 03:46:43;;;;;;;9.33;6.13;;;;;;;;;;5030143;28;20276;-63
2023/11/08 03:49:11;;;;;;;7.77;5.77;;;;;;;;;;5036757;28;20693;-63
2023/11/08 03:51:41;;;;;;;6.63;4.97;;;;;;;;;;5025543;28;20787;-63
2023/11/08 03:54:10;;;;;;;7.53;5.20;;;;;;;;;;5017339;28;20200;-63
2023/11/08 03:56:39;;;;;;;11.13;6.00;;;;;;;;;;5029369;28;20288;-63
2023/11/08 03:59:09;;;;;;;8.43;5.27;;;;;;;;;;5030365;28;20224;-63
2023/11/08 04:01:38;;;;;;;10.33;5.63;;;;;;;;;;5018042;28;20687;-62
2023/11/08 04:04:06;;;;;;;12.10;5.97;;;;;;;;;;5032664;28;20210;-63
2023/11/08 04:06:34;;;;;;;8.60;6.17;;;;;;;;;;5030006;28;20205;-62
2023/11/08 04:09:05;;;;;;;8.57;5.33;;;;;;;;;;5018174;28;20231;-63
2023/11/08 04:11:33;;;;;;;10.40;6.13;;;;;;;;;;5018256;28;20234;-63
2023/11/08 04:14:02;;;;;;;8.33;6.63;;;;;;;;;;5018058;28;20239;-62
2023/11/08 04:16:30;;;;;;;9.17;6.17;;;;;;;;;;5018192;28;20287;-63
2023/11/08 04:18:58;;;;;;;11.00;6.17;;;;;;;;;;5017674;28;20665;-62
2023/11/08 04:21:27;;;;;;;7.77;5.43;;;;;;;;;;5018140;28;20228;-63
2023/11/08 04:23:56;;;;;;;8.00;5.57;;;;;;;;;;5017956;28;20204;-64
2023/11/08 04:26:25;;;;;;;8.80;5.93;;;;;;;;;;5018642;28;20214;-63
2023/11/08 04:28:55;;;;;;;10.37;6.60;;;;;;;;;;5027211;28;20207;-63
2023/11/08 04:31:23;;;;;;;12.70;6.57;;;;;;;;;;5016997;28;20311;-63
2023/11/08 04:33:52;;;;;;;9.77;5.83;;;;;;;;;;5026803;28;20295;-63
2023/11/08 04:36:20;;;;;;;8.33;5.80;;;;;;;;;;5036497;28;20231;-63
2023/11/08 04:38:51;;;;;;;7.30;5.90;;;;;;;;;;5036421;28;20682;-63
2023/11/08 04:41:20;;;;;;;9.87;5.57;;;;;;;;;;5035290;28;20231;-62
2023/11/08 04:43:50;;;;;;;6.80;5.23;;;;;;;;;;5020034;28;20212;-62
2023/11/08 04:46:19;;;;;;;9.17;5.93;;;;;;;;;;5027220;28;20208;-62
2023/11/08 04:48:47;;;;;;;9.87;5.50;;;;;;;;;;5036258;28;20753;-62
2023/11/08 04:51:15;;;;;;;11.07;5.63;;;;;;;;;;5029760;28;20303;-62
2023/11/08 04:53:43;;;;;;;9.60;5.97;;;;;;;;;;5017778;28;20204;-62
2023/11/08 04:56:12;;;;;;;7.70;5.37;;;;;;;;;;5021598;28;20741;-62
2023/11/08 04:58:40;;;;;;;9.23;6.23;;;;;;;;;;5037188;28;20310;-62
2023/11/08 05:01:10;;;;;;;9.00;6.13;;;;;;;;;;5032680;28;20303;-62
2023/11/08 05:03:38;;;;;;;9.67;5.80;;;;;;;;;;5018640;28;20212;-63
2023/11/08 05:06:07;;;;;;;9.40;5.63;;;;;;;;;;5029917;28;20204;-62
2023/11/08 05:08:35;;;;;;;8.77;5.80;;;;;;;;;;5017686;28;20208;-63
2023/11/08 05:11:04;;;;;;;7.03;5.77;;;;;;;;;;5023264;28;20605;-63
2023/11/08 05:13:32;;;;;;;8.27;5.60;;;;;;;;;;5035946;28;20196;-62
2023/11/08 05:16:01;;;;;;;7.77;6.23;;;;;;;;;;5026580;28;20748;-62
2023/11/08 05:18:30;;;;;;;10.60;6.20;;;;;;;;;;5020023;28;20209;-63
2023/11/08 05:20:59;;;;;;;8.30;5.87;;;;;;;;;;5023261;28;20208;-61
2023/11/08 05:23:27;;;;;;;10.03;6.37;;;;;;;;;;5036479;28;20231;-62
2023/11/08 05:26:06;;;;;;;7.23;5.80;;;;;;;;;;5030410;28;20219;-62
2023/11/08 05:28:35;;;;;;;8.80;5.33;;;;;;;;;;5021317;28;20211;-62
2023/11/08 05:31:04;;;;;;;10.73;5.70;;;;;;;;;;5026641;28;20234;-62
2023/11/08 05:33:34;;;;;;;8.13;5.67;;;;;;;;;;5024704;28;20208;-62
2023/11/08 05:36:02;;;;;;;9.77;6.47;;;;;;;;;;5026669;28;20231;-61
2023/11/08 05:38:31;;;;;;;11.43;6.73;;;;;;;;;;5032116;28;20204;-62
2023/11/08 05:41:00;;;;;;;12.17;6.67;;;;;;;;;;5028842;28;20220;-62
2023/11/08 05:43:29;;;;;;;7.97;5.87;;;;;;;;;;5030209;28;20751;-62
2023/11/08 05:45:57;;;;;;;10.30;6.40;;;;;;;;;;5028108;28;20199;-62
2023/11/08 05:48:26;;;;;;;11.43;6.30;;;;;;;;;;5020370;28;20220;-62
2023/11/08 05:50:55;;;;;;;10.50;6.70;;;;;;;;;;5025598;28;20671;-63
2023/11/08 05:53:25;;;;;;;11.30;5.93;;;;;;;;;;5036894;28;20286;-61
2023/11/08 05:55:53;;;;;;;17.87;7.97;;;;;;;;;;5023136;28;20235;-63
2023/11/08 05:58:21;;;;;;;11.17;6.30;;;;;;;;;;5019503;28;20235;-63
2023/11/08 06:00:50;;;;;;;19.90;9.93;;;;;;;;;;5020148;28;20691;-63
2023/11/08 06:03:18;;;;;;;9.63;6.03;;;;;;;;;;5018539;28;20295;-63
2023/11/08 06:05:46;;;;;;;9.67;7.10;;;;;;;;;;5028201;28;20218;-63
2023/11/08 06:08:16;;;;;;;11.17;6.37;;;;;;;;;;5023280;28;20281;-63
2023/11/08 06:10:44;;;;;;;10.97;7.17;;;;;;;;;;5020384;28;20295;-65
2023/11/08 06:13:13;;;;;;;18.73;7.67;;;;;;;;;;5020023;28;20291;-65
2023/11/08 06:15:41;;;;;;;11.37;7.10;;;;;;;;;;5028570;28;20569;-66
2023/11/08 06:18:10;;;;;;;14.87;8.50;;;;;;;;;;5020292;28;20212;-63
2023/11/08 06:20:38;;;;;;;13.17;7.73;;;;;;;;;;5021365;28;20227;-65
2023/11/08 06:23:07;;;;;;;11.13;6.73;;;;;;;;;;5039945;28;20227;-66
2023/11/08 06:25:36;;;;;;;10.43;7.07;;;;;;;;;;5026600;28;20254;-65
2023/11/08 06:28:05;;;;;;;10.40;6.63;;;;;;;;;;5021980;28;20278;-65
2023/11/08 06:30:33;;;;;;;9.57;7.07;;;;;;;;;;5020005;28;20208;-65
2023/11/08 06:33:02;;;;;;;14.67;7.73;;;;;;;;;;5039779;28;20315;-65
2023/11/08 06:35:30;;;;;;;12.70;7.43;;;;;;;;;;5039614;28;20318;-65
2023/11/08 06:37:59;;;;;;;10.57;6.87;;;;;;;;;;5039629;28;20649;-65
2023/11/08 06:40:27;;;;;;;12.60;6.70;;;;;;;;;;5039701;28;20227;-65
2023/11/08 06:42:57;;;;;;;13.70;7.10;;;;;;;;;;5019505;28;20228;-65
2023/11/08 06:45:25;;;;;;;11.40;7.13;;;;;;;;;;5019845;28;20204;-64
2023/11/08 06:47:54;;;;;;;13.00;7.20;;;;;;;;;;5021966;28;20212;-65
2023/11/08 06:50:22;;;;;;;11.33;7.63;;;;;;;;;;5039315;28;20682;-65
2023/11/08 06:52:50;;;;;;;13.87;7.40;;;;;;;;;;5039143;28;20224;-65
2023/11/08 06:55:18;;;;;;;13.33;7.37;;;;;;;;;;5039209;28;20698;-65
2023/11/08 06:58:04;;;;;;;11.77;6.70;;;;;;;;;;5033242;28;20636;-62
2023/11/08 07:00:33;;;;;;;11.40;7.73;;;;;;;;;;5028329;28;20231;-63
2023/11/08 07:03:03;;;;;;;14.00;7.20;;;;;;;;;;5038937;28;20247;-63
2023/11/08 07:05:31;;;;;;;10.83;6.53;;;;;;;;;;5030818;28;20298;-63
2023/11/08 07:08:06;;;;;;;14.10;6.43;;;;;;;;;;5019285;28;20662;-63
2023/11/08 07:10:34;;;;;;;13.57;7.43;;;;;;;;;;5019226;28;20211;-63
2023/11/08 07:13:04;;;;;;;10.40;6.60;;;;;;;;;;5018864;28;20291;-63
2023/11/08 07:15:32;;;;;;;9.07;6.53;;;;;;;;;;5023543;28;20295;-63
2023/11/08 07:18:00;;;;;;;11.73;6.77;;;;;;;;;;5019080;28;20211;-62
2023/11/08 07:20:29;;;;;;;12.53;7.47;;;;;;;;;;5018682;28;20739;-62
2023/11/08 07:22:57;;;;;;;12.53;7.63;;;;;;;;;;5030651;28;20259;-63
2023/11/08 07:25:26;;;;;;;14.00;7.20;;;;;;;;;;5038614;28;20214;-65
2023/11/08 07:27:54;;;;;;;10.37;7.10;;;;;;;;;;5038517;28;20207;-62
2023/11/08 07:30:24;;;;;;;9.30;6.63;;;;;;;;;;5037794;28;20203;-64
2023/11/08 07:32:52;;;;;;;12.33;6.47;;;;;;;;;;5026114;28;20687;-64
2023/11/08 07:35:20;;;;;;;11.93;6.87;;;;;;;;;;5017581;28;20243;-64
2023/11/08 07:37:49;;;;;;;12.53;6.90;;;;;;;;;;5037124;28;20214;-64
2023/11/08 07:40:17;;;;;;;9.93;6.87;;;;;;;;;;5029613;28;20671;-65
2023/11/08 07:42:45;;;;;;;15.77;8.10;;;;;;;;;;5022143;28;20224;-64
2023/11/08 07:45:14;;;;;;;16.77;7.53;;;;;;;;;;5018301;28;20263;-64
2023/11/08 07:47:45;;;;;;;14.97;8.60;;;;;;;;;;5036962;28;20238;-64
2023/11/08 07:50:14;;;;;;;16.50;10.07;;;;;;;;;;5037547;28;20215;-64
2023/11/08 07:52:42;;;;;;;12.93;7.93;;;;;;;;;;5018247;28;20234;-65
2023/11/08 07:55:12;;;;;;;14.37;8.27;;;;;;;;;;5017445;28;20212;-64
2023/11/08 07:57:41;;;;;;;13.90;8.60;;;;;;;;;;5018316;28;20291;-65
2023/11/08 08:00:14;;;;;;;16.60;7.57;;;;;;;;;;5018120;28;20680;-64
2023/11/08 08:02:44;;;;;;;15.30;7.17;;;;;;;;;;5018065;28;20232;-64
2023/11/08 08:05:13;;;;;;;12.53;8.30;;;;;;;;;;5021007;28;20613;-64
2023/11/08 08:07:41;;;;;;;13.07;7.80;;;;;;;;;;5018459;28;20219;-64
2023/11/08 08:10:12;;;;;;;13.33;7.20;;;;;;;;;;5018344;28;20251;-64
2023/11/08 08:12:41;;;;;;;10.60;7.40;;;;;;;;;;5021663;28;20228;-64
2023/11/08 08:15:16;;;;;;;16.10;7.47;;;;;;;;;;5020969;28;20203;-64
2023/11/08 08:17:46;;;;;;;12.20;7.60;;;;;;;;;;5017936;28;20216;-64
2023/11/08 08:20:15;;;;;;;13.43;6.57;;;;;;;;;;5018155;28;20291;-64
2023/11/08 08:22:44;;;;;;;11.20;7.73;;;;;;;;;;5017958;28;20282;-64
2023/11/08 08:25:12;;;;;;;13.53;6.87;;;;;;;;;;5017958;28;20635;-63
2023/11/08 08:27:42;;;;;;;11.20;7.20;;;;;;;;;;5017842;28;20690;-62
2023/11/08 08:30:14;;;;;;;11.07;6.57;;;;;;;;;;5023176;28;20302;-62
2023/11/08 08:32:44;;;;;;;9.67;6.23;;;;;;;;;;5037829;28;20230;-62
2023/11/08 08:35:14;;;;;;;10.97;6.20;;;;;;;;;;5037672;28;20219;-63
2023/11/08 08:37:42;;;;;;;13.30;5.83;;;;;;;;;;5037733;28;20207;-63
2023/11/08 08:40:11;;;;;;;9.23;6.30;;;;;;;;;;5037780;28;20290;-62
2023/11/08 08:42:41;;;;;;;12.37;6.17;;;;;;;;;;5020802;28;20279;-62
2023/11/08 08:45:09;;;;;;;11.37;5.77;;;;;;;;;;5017779;28;20668;-62
2023/11/08 08:47:38;;;;;;;13.33;6.43;;;;;;;;;;5026608;28;20208;-62
2023/11/08 08:50:12;;;;;;;7.43;6.17;;;;;;;;;;5018046;28;20208;-62
2023/11/08 08:52:44;;;;;;;9.10;6.50;;;;;;;;;;5017920;28;20224;-62
2023/11/08 08:55:13;;;;;;;9.60;7.63;;;;;;;;;;5028279;28;20222;-62
2023/11/08 08:57:43;;;;;;;11.90;6.30;;;;;;;;;;5026549;28;20204;-62
2023/11/08 09:00:12;;;;;;;8.43;5.60;;;;;;;;;;5017316;28;20204;-62
2023/11/08 09:02:41;;;;;;;18.03;5.63;;;;;;;;;;5020698;28;20697;-62
2023/11/08 09:05:10;;;;;;;10.87;5.43;;;;;;;;;;5019389;28;20208;-62
2023/11/08 09:07:39;;;;;;;7.30;5.00;;;;;;;;;;5021435;28;20335;-62
2023/11/08 09:10:09;;;;;;;6.80;4.87;;;;;;;;;;5021335;28;20713;-63
2023/11/08 09:12:37;;;;;;;9.30;5.10;;;;;;;;;;5021342;28;20220;-63
2023/11/08 09:15:06;;;;;;;6.43;4.73;;;;;;;;;;5021890;28;20243;-64
2023/11/08 09:17:34;;;;;;;9.30;5.33;;;;;;;;;;5021364;28;20239;-63
2023/11/08 09:20:07;;;;;;;5.37;4.27;;;;;;;;;;5021416;28;20270;-62
2023/11/08 09:22:35;;;;;;;7.03;4.63;;;;;;;;;;5037875;28;20729;-63
2023/11/08 09:25:07;;;;;;;5.77;4.33;;;;;;;;;;5041275;28;20211;-62
2023/11/08 09:27:37;;;;;;;8.87;5.07;;;;;;;;;;5040935;28;20207;-62
2023/11/08 09:30:07;;;;;;;8.17;4.70;;;;;;;;;;5041164;28;20208;-62
2023/11/08 09:32:35;;;;;;;6.30;4.90;;;;;;;;;;5038430;28;20306;-64
2023/11/08 09:35:03;;;;;;;6.93;4.00;;;;;;;;;;5021308;28;20263;-62
2023/11/08 09:37:32;;;;;;;7.67;4.37;;;;;;;;;;5019623;28;20232;-62
2023/11/08 09:40:01;;;;;;;5.13;3.80;;;;;;;;;;5019946;28;20246;-64
2023/11/08 09:42:31;;;;;;;5.03;3.73;;;;;;;;;;5032565;28;20224;-64
2023/11/08 09:45:03;;;;;;;4.93;2.80;;;;;;;;;;5019487;28;20208;-62
2023/11/08 09:47:33;;;;;;;6.73;4.67;;;;;;;;;;5019629;28;20212;-65
2023/11/08 09:50:02;;;;;;;4.43;3.40;;;;;;;;;;5019795;28;20247;-64
2023/11/08 09:52:31;;;;;;;5.63;3.40;;;;;;;;;;5019589;28;20307;-65
2023/11/08 09:55:00;;;;;;;5.07;3.33;;;;;;;;;;5022401;28;20267;-66
2023/11/08 09:57:28;;;;;;;3.60;3.00;;;;;;;;;;5019349;28;20211;-64
2023/11/08 09:59:59;;;;;;;3.07;2.43;;;;;;;;;;5019604;28;20204;-64
2023/11/08 10:02:30;;;;;;;4.30;2.53;;;;;;;;;;5019281;28;20236;-64
2023/11/08 10:04:59;;;;;;;13.53;3.80;;;;;;;;;;5019666;28;20204;-64
2023/11/08 10:07:28;;;;;;;9.13;3.70;;;;;;;;;;5021826;28;20681;-64
2023/11/08 10:09:56;;;;;;;5.43;2.47;;;;;;;;;;5019188;28;20623;-64
2023/11/08 10:12:25;;;;;;;5.90;2.70;;;;;;;;;;5019480;28;20231;-64
2023/11/08 10:14:58;;;;;;;5.53;2.17;;;;;;;;;;5021526;28;20212;-64
2023/11/08 10:17:38;;;;;;;2.93;2.63;;;;;;;;;;5023915;28;20208;-64
2023/11/08 10:20:28;;;;;;;3.03;2.37;;;;;;;;;;5019401;28;20204;-64
2023/11/08 10:22:57;;;;;;;3.47;2.47;;;;;;;;;;5032114;28;20282;-64
2023/11/08 10:25:28;;;;;;;4.03;2.30;;;;;;;;;;5018917;28;20659;-64
2023/11/08 10:28:03;;;;;;;3.00;2.70;;;;;;;;;;5019005;28;20240;-64
2023/11/08 10:30:33;;;;;;;5.30;3.03;;;;;;;;;;5035009;28;20258;-65
2023/11/08 10:33:09;;;;;;;5.77;3.00;;;;;;;;;;5038518;28;20569;-65
2023/11/08 10:35:39;;;;;;;9.27;2.83;;;;;;;;;;4960517;28;2248183;-64
2023/11/08 10:38:08;;;;;;;7.37;2.53;;;;;;;;;;5039665;28;20282;-64
2023/11/08 10:40:36;;;;;;;4.77;2.10;;;;;;;;;;5039442;28;20208;-64
2023/11/08 10:43:04;;;;;;;2.40;2.13;;;;;;;;;;5019487;28;20232;-64
2023/11/08 10:45:34;;;;;;;11.07;3.70;;;;;;;;;;5019795;28;20212;-64
2023/11/08 10:48:03;;;;;;;2.70;2.07;;;;;;;;;;5039174;28;20281;-66
2023/11/08 10:50:34;;;;;;;2.63;1.83;;;;;;;;;;5039257;28;20214;-65
2023/11/08 10:53:02;;;;;;;5.57;2.00;;;;;;;;;;5039440;28;20258;-64
2023/11/08 10:55:31;;;;;;;5.40;1.93;;;;;;;;;;5039303;28;20207;-65
2023/11/08 10:58:04;;;;;;;4.27;1.60;;;;;;;;;;5039383;28;20266;-64
2023/11/08 11:00:34;;;;;;;4.17;1.53;;;;;;;;;;5030896;28;20609;-64
2023/11/08 11:03:07;;;;;;;2.47;1.70;;;;;;;;;;5023110;28;20674;-64
2023/11/08 11:05:40;;;;;;;2.50;1.70;;;;;;;;;;5035301;28;20655;-64
2023/11/08 11:08:08;;;;;;;3.67;1.83;;;;;;;;;;5031415;28;20208;-64
2023/11/08 11:10:37;;;;;;;1.73;1.47;;;;;;;;;;5018308;28;20200;-64
2023/11/08 11:13:11;;;;;;;2.03;1.60;;;;;;;;;;5023408;28;20302;-64
2023/11/08 11:15:44;;;;;;;2.90;1.40;;;;;;;;;;5029140;28;20213;-65
2023/11/08 11:18:15;;;;;;;1.77;1.50;;;;;;;;;;5018416;28;20263;-64
2023/11/08 11:20:49;;;;;;;4.53;2.50;;;;;;;;;;5016961;28;20206;-64
2023/11/08 11:23:30;;;;;;;5.97;1.73;;;;;;;;;;5038863;28;20269;-64
2023/11/08 11:25:59;;;;;;;5.97;2.13;;;;;;;;;;5027874;28;20550;-64
2023/11/08 11:28:45;;;;;;;2.70;2.00;;;;;;;;;;5018071;28;20735;-64
2023/11/08 11:31:30;;;;;;;1.50;1.40;;;;;;;;;;5026393;28;20262;-63
2023/11/08 11:33:59;;;;;;;1.60;1.50;;;;;;;;;;5022527;28;20200;-64
2023/11/08 11:36:48;;;;;;;2.60;1.80;;;;;;;;;;5018151;28;20301;-65
2023/11/08 11:39:19;;;;;;;3.23;2.00;;;;;;;;;;5018283;28;20235;-64
2023/11/08 11:41:47;;;;;;;3.40;1.80;;;;;;;;;;5024551;28;20230;-64
2023/11/08 11:44:15;;;;;;;3.03;1.93;;;;;;;;;;5018061;28;20228;-64
2023/11/08 11:46:53;;;;;;;2.20;1.73;;;;;;;;;;5018155;28;20287;-65
2023/11/08 11:49:22;;;;;;;2.07;1.73;;;;;;;;;;5028559;28;20283;-64
2023/11/08 11:51:52;;;;;;;3.33;1.90;;;;;;;;;;5027011;28;20270;-63
2023/11/08 11:54:20;;;;;;;4.53;2.30;;;;;;;;;;5027356;28;20207;-63
2023/11/08 11:56:48;;;;;;;3.60;2.00;;;;;;;;;;5018394;28;20295;-63
2023/11/08 11:59:17;;;;;;;3.07;1.73;;;;;;;;;;5017669;28;20211;-64
2023/11/08 12:01:46;;;;;;;3.13;2.20;;;;;;;;;;5017629;28;20251;-64
2023/11/08 12:04:14;;;;;;;1.90;1.40;;;;;;;;;;5017427;28;20230;-64
2023/11/08 12:06:43;;;;;;;4.60;1.80;;;;;;;;;;5017345;28;20219;-64
2023/11/08 12:09:13;;;;;;;2.63;1.90;;;;;;;;;;5027927;28;20287;-63
2023/11/08 12:11:50;;;;;;;3.37;1.80;;;;;;;;;;5028062;28;20632;-63
2023/11/08 12:14:21;;;;;;;1.40;1.30;;;;;;;;;;5017833;28;20204;-64
2023/11/08 12:16:49;;;;;;;1.83;1.30;;;;;;;;;;5025618;28;20219;-65
2023/11/08 12:19:18;;;;;;;1.53;1.37;;;;;;;;;;5017940;28;20291;-63
2023/11/08 12:21:46;;;;;;;1.53;1.30;;;;;;;;;;5018016;28;20346;-63
2023/11/08 12:24:16;;;;;;;2.50;1.20;;;;;;;;;;5017515;28;20645;-63
2023/11/08 12:26:44;;;;;;;2.40;1.60;;;;;;;;;;5017721;28;20231;-63
2023/11/08 12:29:13;;;;;;;2.80;1.50;;;;;;;;;;5023261;28;20208;-63
2023/11/08 12:31:41;;;;;;;1.83;1.40;;;;;;;;;;5018203;28;20606;-63
2023/11/08 12:34:09;;;;;;;1.90;1.63;;;;;;;;;;5036604;28;20219;-63
2023/11/08 12:36:39;;;;;;;2.43;1.43;;;;;;;;;;5026957;28;20228;-63
2023/11/08 12:39:13;;;;;;;2.47;1.60;;;;;;;;;;5016362;28;20331;-63
2023/11/08 12:41:44;;;;;;;3.47;1.57;;;;;;;;;;5023672;28;20698;-63
2023/11/08 12:44:14;;;;;;;1.80;1.63;;;;;;;;;;5037254;28;20258;-63
2023/11/08 12:46:49;;;;;;;2.50;1.50;;;;;;;;;;5036280;28;20215;-63
2023/11/08 12:49:18;;;;;;;2.63;1.47;;;;;;;;;;5031370;28;20262;-63
2023/11/08 12:51:48;;;;;;;2.60;1.60;;;;;;;;;;5017798;28;20235;-63
2023/11/08 12:54:16;;;;;;;2.03;1.50;;;;;;;;;;5019521;28;20192;-63
2023/11/08 12:56:46;;;;;;;3.10;1.47;;;;;;;;;;5028294;28;20957;-63
2023/11/08 12:59:16;;;;;;;2.30;1.50;;;;;;;;;;5017384;28;20683;-63
2023/11/08 13:01:45;;;;;;;2.30;1.60;;;;;;;;;;5018820;28;20639;-63
2023/11/08 13:04:16;;;;;;;1.90;1.50;;;;;;;;;;5037062;28;20262;-63
2023/11/08 13:06:45;;;;;;;1.70;1.60;;;;;;;;;;5019978;28;20212;-63
2023/11/08 13:09:13;;;;;;;3.10;1.50;;;;;;;;;;5017774;28;20262;-63
2023/11/08 13:11:42;;;;;;;4.17;1.50;;;;;;;;;;5017397;28;20232;-63
2023/11/08 13:14:11;;;;;;;2.80;1.63;;;;;;;;;;5017320;28;20660;-63
2023/11/08 13:16:41;;;;;;;2.00;1.47;;;;;;;;;;5021936;28;20204;-63
2023/11/08 13:19:09;;;;;;;3.90;1.67;;;;;;;;;;5022578;28;20247;-63
2023/11/08 13:21:37;;;;;;;1.70;1.60;;;;;;;;;;5035968;28;20285;-63
2023/11/08 13:24:06;;;;;;;2.40;1.67;;;;;;;;;;5027923;28;20220;-63
2023/11/08 13:26:35;;;;;;;1.43;1.33;;;;;;;;;;5028439;28;20200;-63
2023/11/08 13:29:03;;;;;;;1.50;1.40;;;;;;;;;;5029683;28;20249;-63
2023/11/08 13:31:33;;;;;;;6.67;2.27;;;;;;;;;;5034895;28;20231;-62
2023/11/08 13:34:02;;;;;;;3.10;1.63;;;;;;;;;;5023775;28;20203;-63
2023/11/08 13:36:30;;;;;;;2.33;1.57;;;;;;;;;;5021876;28;20236;-63
2023/11/08 13:38:58;;;;;;;2.60;1.30;;;;;;;;;;5016943;28;20216;-63
2023/11/08 13:41:27;;;;;;;1.20;1.07;;;;;;;;;;5019703;28;20235;-63
2023/11/08 13:43:55;;;;;;;3.67;1.30;;;;;;;;;;5019429;28;20220;-63
2023/11/08 13:46:24;;;;;;;1.93;1.47;;;;;;;;;;5017002;28;20218;-63
2023/11/08 13:48:53;;;;;;;2.93;1.50;;;;;;;;;;5020196;28;20629;-63
2023/11/08 13:51:22;;;;;;;1.47;1.33;;;;;;;;;;5027085;28;20737;-63
2023/11/08 13:53:50;;;;;;;2.33;1.40;;;;;;;;;;5040195;28;20258;-63
2023/11/08 13:56:18;;;;;;;3.93;1.50;;;;;;;;;;5029364;28;20200;-63
2023/11/08 13:58:49;;;;;;;3.67;1.23;;;;;;;;;;5012881;28;20228;-63
2023/11/08 14:01:18;;;;;;;2.47;1.57;;;;;;;;;;5020600;28;20230;-63
2023/11/08 14:03:46;;;;;;;3.57;1.43;;;;;;;;;;5013698;28;20228;-63
2023/11/08 14:06:16;;;;;;;2.40;1.63;;;;;;;;;;5020716;28;20212;-63
2023/11/08 14:08:45;;;;;;;2.40;1.50;;;;;;;;;;5020407;28;20231;-63
2023/11/08 14:11:15;;;;;;;2.40;1.93;;;;;;;;;;5034005;28;20637;-63
2023/11/08 14:13:43;;;;;;;2.07;1.30;;;;;;;;;;5032553;28;20627;-63
2023/11/08 14:16:12;;;;;;;1.40;1.20;;;;;;;;;;5025722;28;20263;-63
2023/11/08 14:18:40;;;;;;;3.63;1.23;;;;;;;;;;5020123;28;20215;-63
2023/11/08 14:21:09;;;;;;;1.27;1.17;;;;;;;;;;5020071;28;20239;-63
2023/11/08 14:23:39;;;;;;;1.80;1.20;;;;;;;;;;5020026;28;20234;-63
2023/11/08 14:26:07;;;;;;;3.13;1.53;;;;;;;;;;5020473;28;20212;-64
2023/11/08 14:28:36;;;;;;;1.47;1.40;;;;;;;;;;5036715;28;20208;-63
2023/11/08 14:31:05;;;;;;;2.20;1.40;;;;;;;;;;5039688;28;20262;-63
2023/11/08 14:33:33;;;;;;;3.07;1.50;;;;;;;;;;5021266;28;20288;-63
2023/11/08 14:36:02;;;;;;;3.10;1.40;;;;;;;;;;5019955;28;20299;-63
2023/11/08 14:38:31;;;;;;;1.93;1.60;;;;;;;;;;5020112;28;20209;-63
2023/11/08 14:41:01;;;;;;;1.40;1.30;;;;;;;;;;5022656;28;20286;-63
2023/11/08 14:43:29;;;;;;;1.37;1.23;;;;;;;;;;5019408;28;20616;-63
2023/11/08 14:45:57;;;;;;;3.93;1.40;;;;;;;;;;5019670;28;20715;-63
2023/11/08 14:48:26;;;;;;;2.30;2.10;;;;;;;;;;5019574;28;20688;-63
2023/11/08 14:50:54;;;;;;;1.40;1.30;;;;;;;;;;5019574;28;20208;-63